KRND

Randolph AFB Airport

Universal City, Texas, USA
METAR KRND 260356Z AUTO 11006KT 10SM CLR 25/21 A2992 RMK AO2 SLP124 T02490206
Observed Flight Rules
May-26 @ 03:56 UTC (24 minutes ago) Visual Flight Rules
Wind Visibility Clouds
110° at 6 knots 10 miles
  • Clear skies
Temperatures Readings
Current 25°C / 77°F
Dewpoint 21°C / 70°F
Humidity 79%
Altimeter 29.92" Hg
Pressure 1012.4 hPa
Elevation 232
METAR KRND 260356Z AUTO 11006KT 10SM CLR 25/21 A2992 RMK AO2 SLP124 T02490206
Observed Flight Rules
May-26 @ 03:56 UTC
(24 minutes ago)
VFR
Wind Visibility
110° at 6 knots 10 miles
Clouds
  • Clear skies
Temperature Dewpoint
25°C / 77°F 21°C / 70°F
Humidity Altimeter Pressure
79% 29.92" Hg 1012.4 hPa